sensor_id;sensor_type;location;lat;lon;timestamp;temperature;humidity
16700;DHT22;8466;52.286;21.124;2023-03-16T00:01:02;0.00;99.90
16700;DHT22;8466;52.286;21.124;2023-03-16T00:03:32;-0.10;99.90
16700;DHT22;8466;52.286;21.124;2023-03-16T00:06:01;-0.20;99.90
16700;DHT22;8466;52.286;21.124;2023-03-16T00:08:30;-0.30;99.90
16700;DHT22;8466;52.286;21.124;2023-03-16T00:10:58;-0.30;99.90
16700;DHT22;8466;52.286;21.124;2023-03-16T00:13:29;-0.40;99.90
16700;DHT22;8466;52.286;21.124;2023-03-16T00:16:00;-0.40;99.90
16700;DHT22;8466;52.286;21.124;2023-03-16T00:18:32;-0.50;99.90
16700;DHT22;8466;52.286;21.124;2023-03-16T00:21:07;-0.50;99.90
16700;DHT22;8466;52.286;21.124;2023-03-16T00:23:36;-0.60;99.90
16700;DHT22;8466;52.286;21.124;2023-03-16T00:26:06;-0.60;99.90
16700;DHT22;8466;52.286;21.124;2023-03-16T00:28:36;-0.70;99.90
16700;DHT22;8466;52.286;21.124;2023-03-16T00:31:06;-0.60;99.90
16700;DHT22;8466;52.286;21.124;2023-03-16T00:33:39;-0.70;99.90
16700;DHT22;8466;52.286;21.124;2023-03-16T00:36:09;-0.70;99.90
16700;DHT22;8466;52.286;21.124;2023-03-16T00:38:39;-0.70;99.90
16700;DHT22;8466;52.286;21.124;2023-03-16T00:41:13;-0.70;99.90
16700;DHT22;8466;52.286;21.124;2023-03-16T00:43:42;-0.70;99.90
16700;DHT22;8466;52.286;21.124;2023-03-16T00:46:13;-0.70;99.90
16700;DHT22;8466;52.286;21.124;2023-03-16T00:48:45;-0.60;99.90
16700;DHT22;8466;52.286;21.124;2023-03-16T00:51:16;-0.60;99.90
16700;DHT22;8466;52.286;21.124;2023-03-16T00:53:45;-0.50;99.90
16700;DHT22;8466;52.286;21.124;2023-03-16T00:56:14;-0.60;99.90
16700;DHT22;8466;52.286;21.124;2023-03-16T00:58:43;-0.60;99.90
16700;DHT22;8466;52.286;21.124;2023-03-16T01:01:14;-0.60;99.90
16700;DHT22;8466;52.286;21.124;2023-03-16T01:03:46;-0.70;99.90
16700;DHT22;8466;52.286;21.124;2023-03-16T01:06:16;-0.70;99.90
16700;DHT22;8466;52.286;21.124;2023-03-16T01:08:46;-0.70;99.90
16700;DHT22;8466;52.286;21.124;2023-03-16T01:11:17;-0.80;99.90
16700;DHT22;8466;52.286;21.124;2023-03-16T01:13:46;-0.80;99.90
16700;DHT22;8466;52.286;21.124;2023-03-16T01:16:15;-0.90;99.90
16700;DHT22;8466;52.286;21.124;2023-03-16T01:18:46;-0.90;99.90
16700;DHT22;8466;52.286;21.124;2023-03-16T01:21:15;-0.90;99.90
16700;DHT22;8466;52.286;21.124;2023-03-16T01:23:44;-1.00;99.90
16700;DHT22;8466;52.286;21.124;2023-03-16T01:26:13;-1.00;99.90
16700;DHT22;8466;52.286;21.124;2023-03-16T01:28:43;-1.10;99.90
16700;DHT22;8466;52.286;21.124;2023-03-16T01:31:15;-1.20;99.90
16700;DHT22;8466;52.286;21.124;2023-03-16T01:33:45;-1.30;99.90
16700;DHT22;8466;52.286;21.124;2023-03-16T01:36:16;-1.30;99.90
16700;DHT22;8466;52.286;21.124;2023-03-16T01:38:45;-1.40;99.90
16700;DHT22;8466;52.286;21.124;2023-03-16T01:41:14;-1.40;99.90
16700;DHT22;8466;52.286;21.124;2023-03-16T01:43:43;-1.50;99.90
16700;DHT22;8466;52.286;21.124;2023-03-16T01:46:19;-1.50;99.90
16700;DHT22;8466;52.286;21.124;2023-03-16T01:49:03;-1.50;99.90
16700;DHT22;8466;52.286;21.124;2023-03-16T01:51:37;-1.60;99.90
16700;DHT22;8466;52.286;21.124;2023-03-16T01:54:16;-1.60;99.90
16700;DHT22;8466;52.286;21.124;2023-03-16T01:56:51;-1.60;99.90
16700;DHT22;8466;52.286;21.124;2023-03-16T01:59:25;-1.60;99.90
16700;DHT22;8466;52.286;21.124;2023-03-16T02:01:55;-1.60;99.90
16700;DHT22;8466;52.286;21.124;2023-03-16T02:04:48;-1.70;99.90
16700;DHT22;8466;52.286;21.124;2023-03-16T02:07:20;-1.70;99.90
16700;DHT22;8466;52.286;21.124;2023-03-16T02:09:53;-1.70;99.90
16700;DHT22;8466;52.286;21.124;2023-03-16T02:12:23;-1.70;99.90
16700;DHT22;8466;52.286;21.124;2023-03-16T02:14:52;-1.80;99.90
16700;DHT22;8466;52.286;21.124;2023-03-16T02:17:23;-1.70;99.90
16700;DHT22;8466;52.286;21.124;2023-03-16T02:20:02;-1.80;99.90
16700;DHT22;8466;52.286;21.124;2023-03-16T02:22:35;-1.80;99.90
16700;DHT22;8466;52.286;21.124;2023-03-16T02:25:05;-1.80;99.90
16700;DHT22;8466;52.286;21.124;2023-03-16T02:27:40;-1.90;99.90
16700;DHT22;8466;52.286;21.124;2023-03-16T02:30:14;-1.90;99.90
16700;DHT22;8466;52.286;21.124;2023-03-16T02:32:43;-1.90;99.90
16700;DHT22;8466;52.286;21.124;2023-03-16T02:35:13;-1.90;99.90
16700;DHT22;8466;52.286;21.124;2023-03-16T02:37:41;-1.90;99.90
16700;DHT22;8466;52.286;21.124;2023-03-16T02:40:19;-1.90;99.90
16700;DHT22;8466;52.286;21.124;2023-03-16T02:42:53;-2.00;99.90
16700;DHT22;8466;52.286;21.124;2023-03-16T02:45:28;-2.00;99.90
16700;DHT22;8466;52.286;21.124;2023-03-16T02:48:01;-1.90;99.90
16700;DHT22;8466;52.286;21.124;2023-03-16T02:50:32;-1.90;99.90
16700;DHT22;8466;52.286;21.124;2023-03-16T02:53:01;-1.90;99.90
16700;DHT22;8466;52.286;21.124;2023-03-16T02:55:29;-1.90;99.90
16700;DHT22;8466;52.286;21.124;2023-03-16T02:57:58;-2.00;99.90
16700;DHT22;8466;52.286;21.124;2023-03-16T03:00:28;-2.00;99.90
16700;DHT22;8466;52.286;21.124;2023-03-16T03:02:58;-2.00;99.90
16700;DHT22;8466;52.286;21.124;2023-03-16T03:05:27;-2.10;99.90
16700;DHT22;8466;52.286;21.124;2023-03-16T03:07:55;-2.10;99.90
16700;DHT22;8466;52.286;21.124;2023-03-16T03:10:24;-2.10;99.90
16700;DHT22;8466;52.286;21.124;2023-03-16T03:12:53;-2.20;99.90
16700;DHT22;8466;52.286;21.124;2023-03-16T03:15:21;-2.20;99.90
16700;DHT22;8466;52.286;21.124;2023-03-16T03:17:52;-2.20;99.90
16700;DHT22;8466;52.286;21.124;2023-03-16T03:20:21;-2.20;99.90
16700;DHT22;8466;52.286;21.124;2023-03-16T03:22:50;-2.20;99.90
16700;DHT22;8466;52.286;21.124;2023-03-16T03:25:20;-2.30;99.90
16700;DHT22;8466;52.286;21.124;2023-03-16T03:27:50;-2.30;99.90
16700;DHT22;8466;52.286;21.124;2023-03-16T03:30:24;-2.30;99.90
16700;DHT22;8466;52.286;21.124;2023-03-16T03:32:55;-2.30;99.90
16700;DHT22;8466;52.286;21.124;2023-03-16T03:35:24;-2.30;99.90
16700;DHT22;8466;52.286;21.124;2023-03-16T03:37:53;-2.30;99.90
16700;DHT22;8466;52.286;21.124;2023-03-16T03:40:21;-2.40;99.90
16700;DHT22;8466;52.286;21.124;2023-03-16T03:42:50;-2.40;99.90
16700;DHT22;8466;52.286;21.124;2023-03-16T03:45:19;-2.40;99.90
16700;DHT22;8466;52.286;21.124;2023-03-16T03:47:47;-2.40;99.90
16700;DHT22;8466;52.286;21.124;2023-03-16T03:50:18;-2.40;99.90
16700;DHT22;8466;52.286;21.124;2023-03-16T03:52:47;-2.40;99.90
16700;DHT22;8466;52.286;21.124;2023-03-16T03:55:15;-2.50;99.90
16700;DHT22;8466;52.286;21.124;2023-03-16T03:57:44;-2.40;99.90
16700;DHT22;8466;52.286;21.124;2023-03-16T04:00:14;-2.40;99.90
16700;DHT22;8466;52.286;21.124;2023-03-16T04:02:46;-2.40;99.90
16700;DHT22;8466;52.286;21.124;2023-03-16T04:05:15;-2.40;99.90
16700;DHT22;8466;52.286;21.124;2023-03-16T04:07:45;-2.50;99.90
16700;DHT22;8466;52.286;21.124;2023-03-16T04:10:14;-2.50;99.90
16700;DHT22;8466;52.286;21.124;2023-03-16T04:12:43;-2.50;99.90
16700;DHT22;8466;52.286;21.124;2023-03-16T04:15:11;-2.50;99.90
16700;DHT22;8466;52.286;21.124;2023-03-16T04:17:40;-2.50;99.90
16700;DHT22;8466;52.286;21.124;2023-03-16T04:20:10;-2.50;99.90
16700;DHT22;8466;52.286;21.124;2023-03-16T04:22:39;-2.60;99.90
16700;DHT22;8466;52.286;21.124;2023-03-16T04:25:10;-2.60;99.90
16700;DHT22;8466;52.286;21.124;2023-03-16T04:27:39;-2.60;99.90
16700;DHT22;8466;52.286;21.124;2023-03-16T04:30:10;-2.60;99.90
16700;DHT22;8466;52.286;21.124;2023-03-16T04:32:39;-2.60;99.90
16700;DHT22;8466;52.286;21.124;2023-03-16T04:35:08;-2.60;99.90
16700;DHT22;8466;52.286;21.124;2023-03-16T04:37:37;-2.60;99.90
16700;DHT22;8466;52.286;21.124;2023-03-16T04:40:07;-2.60;99.90
16700;DHT22;8466;52.286;21.124;2023-03-16T04:42:44;-2.60;99.90
16700;DHT22;8466;52.286;21.124;2023-03-16T04:45:15;-2.70;99.90
16700;DHT22;8466;52.286;21.124;2023-03-16T04:47:44;-2.70;99.90
16700;DHT22;8466;52.286;21.124;2023-03-16T04:50:13;-2.70;99.90
16700;DHT22;8466;52.286;21.124;2023-03-16T04:52:42;-2.70;99.90
16700;DHT22;8466;52.286;21.124;2023-03-16T04:55:10;-2.70;99.90
16700;DHT22;8466;52.286;21.124;2023-03-16T04:57:39;-2.70;99.90
16700;DHT22;8466;52.286;21.124;2023-03-16T05:00:10;-2.70;99.90
16700;DHT22;8466;52.286;21.124;2023-03-16T05:02:45;-2.70;99.90
16700;DHT22;8466;52.286;21.124;2023-03-16T05:05:14;-2.60;99.90
16700;DHT22;8466;52.286;21.124;2023-03-16T05:07:43;-2.60;99.90
16700;DHT22;8466;52.286;21.124;2023-03-16T05:10:13;-2.60;99.90
16700;DHT22;8466;52.286;21.124;2023-03-16T05:12:42;-2.50;99.90
16700;DHT22;8466;52.286;21.124;2023-03-16T05:15:12;-2.50;99.90
16700;DHT22;8466;52.286;21.124;2023-03-16T05:17:41;-2.50;99.90
16700;DHT22;8466;52.286;21.124;2023-03-16T05:20:11;-2.40;99.90
16700;DHT22;8466;52.286;21.124;2023-03-16T05:22:43;-2.40;99.90
16700;DHT22;8466;52.286;21.124;2023-03-16T05:25:15;-2.40;99.90
16700;DHT22;8466;52.286;21.124;2023-03-16T05:27:45;-2.40;99.90
16700;DHT22;8466;52.286;21.124;2023-03-16T05:30:16;-2.30;99.90
16700;DHT22;8466;52.286;21.124;2023-03-16T05:32:45;-2.20;99.90
16700;DHT22;8466;52.286;21.124;2023-03-16T05:35:13;-2.20;99.90
16700;DHT22;8466;52.286;21.124;2023-03-16T05:37:42;-2.10;99.90
16700;DHT22;8466;52.286;21.124;2023-03-16T05:40:12;-2.10;99.90
16700;DHT22;8466;52.286;21.124;2023-03-16T05:42:44;-2.00;99.90
16700;DHT22;8466;52.286;21.124;2023-03-16T05:45:15;-1.90;99.90
16700;DHT22;8466;52.286;21.124;2023-03-16T05:47:44;-1.90;99.90
16700;DHT22;8466;52.286;21.124;2023-03-16T05:50:14;-1.80;99.90
16700;DHT22;8466;52.286;21.124;2023-03-16T05:52:44;-1.80;99.90
16700;DHT22;8466;52.286;21.124;2023-03-16T05:55:16;-1.70;99.90
16700;DHT22;8466;52.286;21.124;2023-03-16T05:57:46;-1.70;99.90
16700;DHT22;8466;52.286;21.124;2023-03-16T06:00:23;-1.60;99.90
16700;DHT22;8466;52.286;21.124;2023-03-16T06:02:54;-1.50;99.90
16700;DHT22;8466;52.286;21.124;2023-03-16T06:05:23;-1.40;99.90
16700;DHT22;8466;52.286;21.124;2023-03-16T06:07:52;-1.30;99.90
16700;DHT22;8466;52.286;21.124;2023-03-16T06:10:20;-1.30;99.90
16700;DHT22;8466;52.286;21.124;2023-03-16T06:12:49;-1.20;99.90
16700;DHT22;8466;52.286;21.124;2023-03-16T06:15:18;-1.10;99.90
16700;DHT22;8466;52.286;21.124;2023-03-16T06:17:52;-1.00;99.90
16700;DHT22;8466;52.286;21.124;2023-03-16T06:20:21;-0.90;99.90
16700;DHT22;8466;52.286;21.124;2023-03-16T06:22:50;-0.80;99.90
16700;DHT22;8466;52.286;21.124;2023-03-16T06:25:19;-0.70;99.90
16700;DHT22;8466;52.286;21.124;2023-03-16T06:27:47;-0.60;99.90
16700;DHT22;8466;52.286;21.124;2023-03-16T06:30:19;-0.40;99.90
16700;DHT22;8466;52.286;21.124;2023-03-16T06:33:02;-0.30;99.90
16700;DHT22;8466;52.286;21.124;2023-03-16T06:35:31;-0.20;99.90
16700;DHT22;8466;52.286;21.124;2023-03-16T06:38:03;-0.10;99.90
16700;DHT22;8466;52.286;21.124;2023-03-16T06:40:32;0.10;99.90
16700;DHT22;8466;52.286;21.124;2023-03-16T06:43:02;0.30;99.90
16700;DHT22;8466;52.286;21.124;2023-03-16T06:45:35;0.30;99.90
16700;DHT22;8466;52.286;21.124;2023-03-16T06:48:09;0.40;99.90
16700;DHT22;8466;52.286;21.124;2023-03-16T06:50:41;0.50;99.90
16700;DHT22;8466;52.286;21.124;2023-03-16T06:53:13;0.70;99.90
16700;DHT22;8466;52.286;21.124;2023-03-16T06:55:42;0.80;99.90
16700;DHT22;8466;52.286;21.124;2023-03-16T06:58:10;0.90;99.90
16700;DHT22;8466;52.286;21.124;2023-03-16T07:00:39;1.10;99.90
16700;DHT22;8466;52.286;21.124;2023-03-16T07:03:10;1.10;99.90
16700;DHT22;8466;52.286;21.124;2023-03-16T07:05:39;1.30;99.90
16700;DHT22;8466;52.286;21.124;2023-03-16T07:08:07;1.50;99.90
16700;DHT22;8466;52.286;21.124;2023-03-16T07:10:36;1.70;99.90
16700;DHT22;8466;52.286;21.124;2023-03-16T07:13:05;1.90;99.90
16700;DHT22;8466;52.286;21.124;2023-03-16T07:15:33;1.90;99.90
16700;DHT22;8466;52.286;21.124;2023-03-16T07:18:02;2.00;99.90
16700;DHT22;8466;52.286;21.124;2023-03-16T07:20:32;2.10;99.90
16700;DHT22;8466;52.286;21.124;2023-03-16T07:23:01;2.10;99.90
16700;DHT22;8466;52.286;21.124;2023-03-16T07:25:31;2.20;99.90
16700;DHT22;8466;52.286;21.124;2023-03-16T07:27:59;2.20;99.90
16700;DHT22;8466;52.286;21.124;2023-03-16T07:30:28;2.40;99.90
16700;DHT22;8466;52.286;21.124;2023-03-16T07:32:57;2.40;99.90
16700;DHT22;8466;52.286;21.124;2023-03-16T07:35:26;2.50;99.90
16700;DHT22;8466;52.286;21.124;2023-03-16T07:37:56;2.60;99.90
16700;DHT22;8466;52.286;21.124;2023-03-16T07:40:25;2.60;99.90
16700;DHT22;8466;52.286;21.124;2023-03-16T07:42:54;2.60;99.90
16700;DHT22;8466;52.286;21.124;2023-03-16T07:45:23;2.60;99.90
16700;DHT22;8466;52.286;21.124;2023-03-16T07:47:52;2.70;99.90
16700;DHT22;8466;52.286;21.124;2023-03-16T07:50:20;2.70;99.90
16700;DHT22;8466;52.286;21.124;2023-03-16T07:52:49;2.70;99.90
16700;DHT22;8466;52.286;21.124;2023-03-16T07:55:19;2.80;99.90
16700;DHT22;8466;52.286;21.124;2023-03-16T07:57:48;2.90;99.90
16700;DHT22;8466;52.286;21.124;2023-03-16T08:00:18;3.00;99.90
16700;DHT22;8466;52.286;21.124;2023-03-16T08:02:50;3.00;99.90
16700;DHT22;8466;52.286;21.124;2023-03-16T08:05:20;3.10;99.90
16700;DHT22;8466;52.286;21.124;2023-03-16T08:07:48;3.20;99.90
16700;DHT22;8466;52.286;21.124;2023-03-16T08:10:19;3.30;99.90
16700;DHT22;8466;52.286;21.124;2023-03-16T08:12:48;3.30;99.90
16700;DHT22;8466;52.286;21.124;2023-03-16T08:15:17;3.50;99.90
16700;DHT22;8466;52.286;21.124;2023-03-16T08:17:47;3.60;99.90
16700;DHT22;8466;52.286;21.124;2023-03-16T08:20:16;3.50;99.90
16700;DHT22;8466;52.286;21.124;2023-03-16T08:22:45;3.50;99.90
16700;DHT22;8466;52.286;21.124;2023-03-16T08:25:16;3.50;99.90
16700;DHT22;8466;52.286;21.124;2023-03-16T08:27:47;3.50;99.90
16700;DHT22;8466;52.286;21.124;2023-03-16T08:30:16;3.60;99.90
16700;DHT22;8466;52.286;21.124;2023-03-16T08:32:45;3.80;99.90
16700;DHT22;8466;52.286;21.124;2023-03-16T08:35:15;3.80;99.90
16700;DHT22;8466;52.286;21.124;2023-03-16T08:37:44;3.80;99.90
16700;DHT22;8466;52.286;21.124;2023-03-16T08:40:13;3.80;99.90
16700;DHT22;8466;52.286;21.124;2023-03-16T08:42:44;3.90;99.90
16700;DHT22;8466;52.286;21.124;2023-03-16T08:45:17;4.00;99.90
16700;DHT22;8466;52.286;21.124;2023-03-16T08:47:46;4.10;99.90
16700;DHT22;8466;52.286;21.124;2023-03-16T08:50:16;4.20;99.90
16700;DHT22;8466;52.286;21.124;2023-03-16T08:52:48;4.30;99.90
16700;DHT22;8466;52.286;21.124;2023-03-16T08:55:17;4.30;99.90
16700;DHT22;8466;52.286;21.124;2023-03-16T08:57:46;4.30;99.90
16700;DHT22;8466;52.286;21.124;2023-03-16T09:00:18;4.40;99.90
16700;DHT22;8466;52.286;21.124;2023-03-16T09:02:47;4.50;99.90
16700;DHT22;8466;52.286;21.124;2023-03-16T09:05:15;4.70;99.90
16700;DHT22;8466;52.286;21.124;2023-03-16T09:07:45;4.70;99.90
16700;DHT22;8466;52.286;21.124;2023-03-16T09:10:15;4.70;99.90
16700;DHT22;8466;52.286;21.124;2023-03-16T09:12:45;4.80;99.90
16700;DHT22;8466;52.286;21.124;2023-03-16T09:15:14;4.90;99.90
16700;DHT22;8466;52.286;21.124;2023-03-16T09:17:44;4.90;99.90
16700;DHT22;8466;52.286;21.124;2023-03-16T09:20:14;4.90;99.90
16700;DHT22;8466;52.286;21.124;2023-03-16T09:22:51;5.00;99.90
16700;DHT22;8466;52.286;21.124;2023-03-16T09:25:20;5.00;99.90
16700;DHT22;8466;52.286;21.124;2023-03-16T09:27:54;5.10;99.90
16700;DHT22;8466;52.286;21.124;2023-03-16T09:30:35;5.10;99.90
16700;DHT22;8466;52.286;21.124;2023-03-16T09:33:05;5.10;99.90
16700;DHT22;8466;52.286;21.124;2023-03-16T09:35:34;5.30;99.90
16700;DHT22;8466;52.286;21.124;2023-03-16T09:38:04;5.40;99.90
16700;DHT22;8466;52.286;21.124;2023-03-16T09:40:37;5.60;99.90
16700;DHT22;8466;52.286;21.124;2023-03-16T09:43:24;5.80;99.90
16700;DHT22;8466;52.286;21.124;2023-03-16T09:46:02;6.00;99.90
16700;DHT22;8466;52.286;21.124;2023-03-16T09:48:37;6.20;99.90
16700;DHT22;8466;52.286;21.124;2023-03-16T09:51:11;6.10;99.90
16700;DHT22;8466;52.286;21.124;2023-03-16T09:53:42;6.10;99.90
16700;DHT22;8466;52.286;21.124;2023-03-16T09:56:15;6.00;99.90
16700;DHT22;8466;52.286;21.124;2023-03-16T09:58:47;6.10;99.90
16700;DHT22;8466;52.286;21.124;2023-03-16T10:01:22;6.20;99.90
16700;DHT22;8466;52.286;21.124;2023-03-16T10:04:03;6.50;99.90
16700;DHT22;8466;52.286;21.124;2023-03-16T10:06:41;6.80;99.90
16700;DHT22;8466;52.286;21.124;2023-03-16T10:09:20;6.80;99.90
16700;DHT22;8466;52.286;21.124;2023-03-16T10:11:53;7.10;99.90
16700;DHT22;8466;52.286;21.124;2023-03-16T10:14:26;7.00;99.90
16700;DHT22;8466;52.286;21.124;2023-03-16T10:17:02;6.90;99.90
16700;DHT22;8466;52.286;21.124;2023-03-16T10:19:38;7.00;99.90
16700;DHT22;8466;52.286;21.124;2023-03-16T10:22:16;7.50;99.90
16700;DHT22;8466;52.286;21.124;2023-03-16T10:25:03;7.50;99.90
16700;DHT22;8466;52.286;21.124;2023-03-16T10:27:36;7.80;99.90
16700;DHT22;8466;52.286;21.124;2023-03-16T10:30:18;8.00;99.90
16700;DHT22;8466;52.286;21.124;2023-03-16T10:32:48;8.30;99.90
16700;DHT22;8466;52.286;21.124;2023-03-16T10:35:28;8.50;99.90
16700;DHT22;8466;52.286;21.124;2023-03-16T10:37:58;8.60;99.90
16700;DHT22;8466;52.286;21.124;2023-03-16T10:40:33;8.80;99.90
16700;DHT22;8466;52.286;21.124;2023-03-16T10:43:05;9.10;99.90
16700;DHT22;8466;52.286;21.124;2023-03-16T10:45:35;9.20;99.90
16700;DHT22;8466;52.286;21.124;2023-03-16T10:48:08;9.20;99.90
16700;DHT22;8466;52.286;21.124;2023-03-16T10:50:42;9.10;99.90
16700;DHT22;8466;52.286;21.124;2023-03-16T10:53:17;8.90;99.90
16700;DHT22;8466;52.286;21.124;2023-03-16T10:55:47;8.70;99.90
16700;DHT22;8466;52.286;21.124;2023-03-16T10:58:23;8.60;99.50
16700;DHT22;8466;52.286;21.124;2023-03-16T11:00:54;8.40;98.30
16700;DHT22;8466;52.286;21.124;2023-03-16T11:03:25;8.20;98.80
16700;DHT22;8466;52.286;21.124;2023-03-16T11:06:00;8.20;99.90
16700;DHT22;8466;52.286;21.124;2023-03-16T11:08:32;8.10;99.90
16700;DHT22;8466;52.286;21.124;2023-03-16T11:11:07;8.20;99.90
16700;DHT22;8466;52.286;21.124;2023-03-16T11:13:43;8.40;99.90
16700;DHT22;8466;52.286;21.124;2023-03-16T11:16:22;8.50;99.90
16700;DHT22;8466;52.286;21.124;2023-03-16T11:18:54;8.60;99.90
16700;DHT22;8466;52.286;21.124;2023-03-16T11:21:33;8.70;99.90
16700;DHT22;8466;52.286;21.124;2023-03-16T11:24:09;8.70;99.90
16700;DHT22;8466;52.286;21.124;2023-03-16T11:26:43;8.70;99.40
16700;DHT22;8466;52.286;21.124;2023-03-16T11:29:18;8.60;99.90
16700;DHT22;8466;52.286;21.124;2023-03-16T11:31:50;8.60;99.50
16700;DHT22;8466;52.286;21.124;2023-03-16T11:34:25;8.20;98.30
16700;DHT22;8466;52.286;21.124;2023-03-16T11:37:08;8.30;98.40
16700;DHT22;8466;52.286;21.124;2023-03-16T11:39:46;8.10;98.80
16700;DHT22;8466;52.286;21.124;2023-03-16T11:42:35;7.90;98.80
16700;DHT22;8466;52.286;21.124;2023-03-16T11:45:18;7.80;98.10
16700;DHT22;8466;52.286;21.124;2023-03-16T11:48:09;7.60;98.40
16700;DHT22;8466;52.286;21.124;2023-03-16T11:50:59;7.50;99.70
16700;DHT22;8466;52.286;21.124;2023-03-16T11:53:43;7.70;99.40
16700;DHT22;8466;52.286;21.124;2023-03-16T11:56:20;8.00;98.30
16700;DHT22;8466;52.286;21.124;2023-03-16T11:59:18;8.20;98.60
16700;DHT22;8466;52.286;21.124;2023-03-16T12:02:00;8.40;96.60
16700;DHT22;8466;52.286;21.124;2023-03-16T12:04:46;8.40;95.70
16700;DHT22;8466;52.286;21.124;2023-03-16T12:07:31;8.30;95.30
16700;DHT22;8466;52.286;21.124;2023-03-16T12:10:21;8.30;95.70
16700;DHT22;8466;52.286;21.124;2023-03-16T12:12:59;8.20;95.90
16700;DHT22;8466;52.286;21.124;2023-03-16T12:15:34;7.90;97.40
16700;DHT22;8466;52.286;21.124;2023-03-16T12:18:16;8.00;98.40
16700;DHT22;8466;52.286;21.124;2023-03-16T12:20:53;7.90;99.90
16700;DHT22;8466;52.286;21.124;2023-03-16T12:23:31;7.80;99.90
16700;DHT22;8466;52.286;21.124;2023-03-16T12:26:07;7.70;99.90
16700;DHT22;8466;52.286;21.124;2023-03-16T12:28:44;7.80;99.90
16700;DHT22;8466;52.286;21.124;2023-03-16T12:31:17;7.80;99.90
16700;DHT22;8466;52.286;21.124;2023-03-16T12:33:58;7.70;99.90
16700;DHT22;8466;52.286;21.124;2023-03-16T12:37:16;7.50;99.90
16700;DHT22;8466;52.286;21.124;2023-03-16T12:40:08;8.00;99.90
16700;DHT22;8466;52.286;21.124;2023-03-16T12:43:02;7.70;99.90
16700;DHT22;8466;52.286;21.124;2023-03-16T12:45:39;7.70;99.90
16700;DHT22;8466;52.286;21.124;2023-03-16T12:48:23;7.70;99.90
16700;DHT22;8466;52.286;21.124;2023-03-16T12:50:57;7.80;99.90
16700;DHT22;8466;52.286;21.124;2023-03-16T12:53:37;7.80;99.90
16700;DHT22;8466;52.286;21.124;2023-03-16T12:56:12;7.90;99.90
16700;DHT22;8466;52.286;21.124;2023-03-16T12:58:46;7.70;99.90
16700;DHT22;8466;52.286;21.124;2023-03-16T13:01:18;8.00;99.90
16700;DHT22;8466;52.286;21.124;2023-03-16T13:04:00;7.70;99.90
16700;DHT22;8466;52.286;21.124;2023-03-16T13:06:35;8.20;99.90
16700;DHT22;8466;52.286;21.124;2023-03-16T13:09:11;8.30;99.90
16700;DHT22;8466;52.286;21.124;2023-03-16T13:11:55;8.30;99.90
16700;DHT22;8466;52.286;21.124;2023-03-16T13:14:38;8.40;99.90
16700;DHT22;8466;52.286;21.124;2023-03-16T13:17:26;8.40;99.90
16700;DHT22;8466;52.286;21.124;2023-03-16T13:20:01;8.40;99.90
16700;DHT22;8466;52.286;21.124;2023-03-16T13:22:44;8.30;99.90
16700;DHT22;8466;52.286;21.124;2023-03-16T13:25:16;8.30;99.90
16700;DHT22;8466;52.286;21.124;2023-03-16T13:27:51;8.20;99.90
16700;DHT22;8466;52.286;21.124;2023-03-16T13:30:26;8.10;99.90
16700;DHT22;8466;52.286;21.124;2023-03-16T13:33:00;8.10;99.90
16700;DHT22;8466;52.286;21.124;2023-03-16T13:35:39;8.10;99.90
16700;DHT22;8466;52.286;21.124;2023-03-16T13:38:13;8.10;98.00
16700;DHT22;8466;52.286;21.124;2023-03-16T13:40:51;8.00;98.40
16700;DHT22;8466;52.286;21.124;2023-03-16T13:43:26;7.60;97.90
16700;DHT22;8466;52.286;21.124;2023-03-16T13:46:15;7.80;97.90
16700;DHT22;8466;52.286;21.124;2023-03-16T13:48:46;7.70;98.90
16700;DHT22;8466;52.286;21.124;2023-03-16T13:51:19;7.70;98.90
16700;DHT22;8466;52.286;21.124;2023-03-16T13:53:49;7.70;98.90
16700;DHT22;8466;52.286;21.124;2023-03-16T13:56:22;7.60;99.80
16700;DHT22;8466;52.286;21.124;2023-03-16T13:58:53;7.80;99.90
16700;DHT22;8466;52.286;21.124;2023-03-16T14:01:27;7.30;99.30
16700;DHT22;8466;52.286;21.124;2023-03-16T14:04:00;7.60;99.20
16700;DHT22;8466;52.286;21.124;2023-03-16T14:06:39;7.50;99.30
16700;DHT22;8466;52.286;21.124;2023-03-16T14:12:01;7.40;98.80
16700;DHT22;8466;52.286;21.124;2023-03-16T14:14:37;7.50;98.20
16700;DHT22;8466;52.286;21.124;2023-03-16T14:17:12;7.40;98.30
16700;DHT22;8466;52.286;21.124;2023-03-16T14:19:47;7.60;97.80
16700;DHT22;8466;52.286;21.124;2023-03-16T14:22:26;7.70;97.90
16700;DHT22;8466;52.286;21.124;2023-03-16T14:25:19;7.60;98.10
16700;DHT22;8466;52.286;21.124;2023-03-16T14:27:57;7.60;98.50
16700;DHT22;8466;52.286;21.124;2023-03-16T14:30:28;7.50;98.60
16700;DHT22;8466;52.286;21.124;2023-03-16T14:33:25;7.90;99.10
16700;DHT22;8466;52.286;21.124;2023-03-16T14:35:56;7.40;99.20
16700;DHT22;8466;52.286;21.124;2023-03-16T14:38:47;7.30;99.40
16700;DHT22;8466;52.286;21.124;2023-03-16T14:41:49;7.00;99.90
16700;DHT22;8466;52.286;21.124;2023-03-16T14:44:58;7.20;99.70
16700;DHT22;8466;52.286;21.124;2023-03-16T14:51:22;7.10;99.90
16700;DHT22;8466;52.286;21.124;2023-03-16T14:53:54;6.90;99.90
16700;DHT22;8466;52.286;21.124;2023-03-16T14:56:36;7.10;99.90
16700;DHT22;8466;52.286;21.124;2023-03-16T14:59:49;7.20;99.50
16700;DHT22;8466;52.286;21.124;2023-03-16T15:02:27;7.20;99.40
16700;DHT22;8466;52.286;21.124;2023-03-16T15:04:59;7.10;99.60
16700;DHT22;8466;52.286;21.124;2023-03-16T15:07:37;7.10;99.40
16700;DHT22;8466;52.286;21.124;2023-03-16T15:11:01;7.00;99.90
16700;DHT22;8466;52.286;21.124;2023-03-16T15:13:24;7.10;99.90
16700;DHT22;8466;52.286;21.124;2023-03-16T15:16:38;6.90;99.90
16700;DHT22;8466;52.286;21.124;2023-03-16T15:19:17;6.70;99.90
16700;DHT22;8466;52.286;21.124;2023-03-16T15:21:55;6.70;99.90
16700;DHT22;8466;52.286;21.124;2023-03-16T15:24:28;6.70;99.90
16700;DHT22;8466;52.286;21.124;2023-03-16T15:27:02;6.60;99.90
16700;DHT22;8466;52.286;21.124;2023-03-16T15:29:37;6.60;99.90
16700;DHT22;8466;52.286;21.124;2023-03-16T15:32:12;6.50;99.90
16700;DHT22;8466;52.286;21.124;2023-03-16T15:34:41;6.50;99.90
16700;DHT22;8466;52.286;21.124;2023-03-16T15:37:13;6.50;99.90
16700;DHT22;8466;52.286;21.124;2023-03-16T15:39:51;6.40;99.90
16700;DHT22;8466;52.286;21.124;2023-03-16T15:42:20;6.40;99.90
16700;DHT22;8466;52.286;21.124;2023-03-16T15:45:07;6.40;99.90
16700;DHT22;8466;52.286;21.124;2023-03-16T15:47:39;6.30;99.90
16700;DHT22;8466;52.286;21.124;2023-03-16T15:50:10;6.40;99.90
16700;DHT22;8466;52.286;21.124;2023-03-16T15:52:42;6.20;99.90
16700;DHT22;8466;52.286;21.124;2023-03-16T15:55:19;6.20;99.90
16700;DHT22;8466;52.286;21.124;2023-03-16T15:57:55;6.30;99.90
16700;DHT22;8466;52.286;21.124;2023-03-16T16:00:29;6.30;99.90
16700;DHT22;8466;52.286;21.124;2023-03-16T16:03:00;6.20;99.90
16700;DHT22;8466;52.286;21.124;2023-03-16T16:05:29;6.10;99.90
16700;DHT22;8466;52.286;21.124;2023-03-16T16:07:58;5.00;99.90
16700;DHT22;8466;52.286;21.124;2023-03-16T16:10:30;5.80;99.90
16700;DHT22;8466;52.286;21.124;2023-03-16T16:13:01;5.70;99.90
16700;DHT22;8466;52.286;21.124;2023-03-16T16:15:31;5.60;99.90
16700;DHT22;8466;52.286;21.124;2023-03-16T16:18:26;5.40;99.90
16700;DHT22;8466;52.286;21.124;2023-03-16T16:20:57;5.20;99.90
16700;DHT22;8466;52.286;21.124;2023-03-16T16:23:26;5.10;99.90
16700;DHT22;8466;52.286;21.124;2023-03-16T16:25:59;5.10;99.90